Time;durP1;ratioP1;P1;durP2;ratioP2;P2;SDS_P1;SDS_P2;PMS_P1;PMS_P2;Temp;Humidity;BMP_temperature;BMP_pressure;BME280_temperature;BME280_humidity;BME280_pressure;Samples;Min_cycle;Max_cycle;Signal;HPM_P1;HPM_P2
2023/09/28 00:00:45;;;;;;;9.00;4.80;;;;;;;23.15;52.40;98937.31;105406;1257;74595;-39
2023/09/28 00:03:12;;;;;;;5.80;5.10;;;;;;;23.14;52.52;98934.11;105826;1257;66470;-39
2023/09/28 00:05:40;;;;;;;7.50;5.40;;;;;;;23.14;52.52;98933.84;105570;1258;72654;-39
2023/09/28 00:08:07;;;;;;;6.90;5.00;;;;;;;23.13;52.28;98934.61;105120;1259;61245;-40
2023/09/28 00:10:35;;;;;;;6.80;5.10;;;;;;;23.13;52.45;98933.82;105218;1257;61347;-39
2023/09/28 00:13:02;;;;;;;7.80;5.30;;;;;;;23.13;52.30;98933.83;105154;1261;74694;-39
2023/09/28 00:15:30;;;;;;;5.70;4.70;;;;;;;23.12;52.42;98936.45;105137;1261;65821;-39
2023/09/28 00:17:57;;;;;;;5.60;5.00;;;;;;;23.12;52.20;98933.73;105119;1258;72598;-40
2023/09/28 00:20:27;;;;;;;5.90;5.00;;;;;;;23.11;52.16;98932.99;105183;1257;61355;-40
2023/09/28 00:22:56;;;;;;;5.70;4.60;;;;;;;23.11;52.41;98938.14;105217;1257;61359;-39
2023/09/28 00:25:23;;;;;;;5.90;4.60;;;;;;;23.10;52.22;98939.20;105514;1262;74653;-38
2023/09/28 00:27:52;;;;;;;8.60;5.60;;;;;;;23.09;52.46;98938.33;105452;1262;65399;-38
2023/09/28 00:30:22;;;;;;;6.30;5.10;;;;;;;23.10;52.08;98940.44;105202;1257;72416;-39
2023/09/28 00:32:51;;;;;;;6.10;4.90;;;;;;;23.08;52.38;98936.89;105273;1262;61244;-40
2023/09/28 00:35:19;;;;;;;7.30;5.30;;;;;;;23.09;52.31;98942.14;105534;1258;61301;-40
2023/09/28 00:37:49;;;;;;;6.60;5.00;;;;;;;23.08;52.38;98938.91;105446;1261;74704;-40
2023/09/28 00:40:27;;;;;;;6.10;5.00;;;;;;;23.07;52.30;98940.48;105372;1262;66354;-40
2023/09/28 00:42:55;;;;;;;5.70;5.10;;;;;;;23.07;52.26;98939.27;105141;1257;72466;-39
2023/09/28 00:45:23;;;;;;;7.20;5.20;;;;;;;23.06;52.39;98941.53;105353;1260;61392;-39
2023/09/28 00:47:54;;;;;;;7.80;5.20;;;;;;;23.06;52.28;98936.25;105295;1258;61282;-39
2023/09/28 00:50:23;;;;;;;7.30;5.40;;;;;;;23.05;52.43;98936.57;105416;1257;61251;-39
2023/09/28 00:52:57;;;;;;;6.10;5.40;;;;;;;23.04;52.48;98936.41;105429;1262;66309;-39
2023/09/28 00:55:24;;;;;;;7.80;5.40;;;;;;;23.04;52.22;98936.23;105232;1257;72703;-39
2023/09/28 00:57:52;;;;;;;7.60;5.00;;;;;;;23.03;52.25;98934.58;105343;1262;61362;-39
2023/09/28 01:00:28;;;;;;;6.20;4.90;;;;;;;23.03;52.24;98938.95;105475;1257;61244;-39
2023/09/28 01:02:57;;;;;;;6.10;5.10;;;;;;;23.03;52.43;98941.44;105246;1262;74664;-39
2023/09/28 01:05:33;;;;;;;6.60;4.80;;;;;;;23.03;52.22;98942.05;105354;1261;66272;-38
2023/09/28 01:08:07;;;;;;;6.60;4.60;;;;;;;23.02;52.16;98937.98;105263;1257;71499;-40
2023/09/28 01:10:36;;;;;;;7.90;5.20;;;;;;;23.02;52.09;98935.94;105173;1263;61318;-40
2023/09/28 01:13:11;;;;;;;8.20;5.50;;;;;;;23.01;52.31;98935.84;105380;1257;61231;-41
2023/09/28 01:15:40;;;;;;;6.20;4.90;;;;;;;23.01;52.25;98937.94;105338;1262;74548;-41
2023/09/28 01:18:09;;;;;;;6.60;5.00;;;;;;;23.00;52.07;98935.59;105204;1261;66471;-40
2023/09/28 01:20:40;;;;;;;5.60;5.10;;;;;;;23.00;52.26;98935.52;105267;1257;72618;-38
2023/09/28 01:23:08;;;;;;;7.40;5.20;;;;;;;22.99;52.07;98938.45;105833;1261;61247;-39
2023/09/28 01:25:37;;;;;;;6.80;5.00;;;;;;;22.99;52.01;98937.04;105272;1257;61237;-39
2023/09/28 01:28:06;;;;;;;5.90;4.60;;;;;;;22.99;52.00;98937.73;105146;1259;74572;-39
2023/09/28 01:30:33;;;;;;;6.00;5.10;;;;;;;22.99;51.99;98933.13;105257;1262;64875;-39
2023/09/28 01:33:02;;;;;;;6.90;4.90;;;;;;;22.97;52.12;98938.77;105248;1257;72407;-39
2023/09/28 01:35:30;;;;;;;8.30;5.40;;;;;;;22.97;52.11;98935.13;105374;1262;61385;-39
2023/09/28 01:38:03;;;;;;;6.20;5.30;;;;;;;22.97;52.13;98938.46;105452;1257;61369;-39
2023/09/28 01:40:31;;;;;;;6.50;5.30;;;;;;;22.96;51.94;98937.02;105363;1257;73440;-38
2023/09/28 01:42:58;;;;;;;6.50;4.70;;;;;;;22.96;52.01;98936.40;105789;1261;65802;-39
2023/09/28 01:45:25;;;;;;;6.40;5.00;;;;;;;22.95;51.98;98939.20;105230;1257;72437;-40
2023/09/28 01:47:52;;;;;;;7.10;5.00;;;;;;;22.95;52.04;98935.67;105179;1263;61209;-40
2023/09/28 01:50:20;;;;;;;6.40;5.20;;;;;;;22.95;51.92;98936.77;105401;1258;61330;-40
2023/09/28 01:52:48;;;;;;;5.80;5.20;;;;;;;22.94;51.91;98930.80;105479;1260;74728;-40
2023/09/28 01:55:15;;;;;;;9.40;5.50;;;;;;;22.94;51.94;98928.93;105364;1262;65398;-40
2023/09/28 01:57:42;;;;;;;5.90;5.20;;;;;;;22.93;51.97;98929.15;105421;1257;72456;-39
2023/09/28 02:00:20;;;;;;;6.50;4.70;;;;;;;22.92;51.87;98934.05;105237;1263;61369;-40
2023/09/28 02:02:50;;;;;;;5.50;4.90;;;;;;;22.92;51.95;98936.14;105250;1259;61288;-40
2023/09/28 02:05:18;;;;;;;7.40;5.40;;;;;;;22.92;51.85;98935.12;105182;1261;74626;-40
2023/09/28 02:07:46;;;;;;;5.90;4.70;;;;;;;22.91;51.67;98933.47;105256;1264;65226;-40
2023/09/28 02:10:14;;;;;;;5.90;5.00;;;;;;;22.91;51.78;98936.35;105183;1257;72628;-38
2023/09/28 02:12:45;;;;;;;7.30;5.10;;;;;;;22.90;51.77;98934.38;105210;1257;61216;-39
2023/09/28 02:15:15;;;;;;;9.60;5.10;;;;;;;22.90;51.75;98933.90;105161;1257;61361;-38
2023/09/28 02:17:44;;;;;;;6.20;4.80;;;;;;;22.89;51.54;98930.27;105321;1258;74467;-40
2023/09/28 02:20:16;;;;;;;8.50;5.00;;;;;;;22.89;51.61;98930.34;105336;1262;64784;-39
2023/09/28 02:22:44;;;;;;;5.90;4.60;;;;;;;22.88;51.65;98930.39;105268;1257;72451;-39
2023/09/28 02:25:25;;;;;;;9.00;4.80;;;;;;;22.88;51.61;98933.52;105166;1257;61279;-40
2023/09/28 02:27:52;;;;;;;6.40;5.00;;;;;;;22.87;51.79;98933.10;105381;1258;61365;-38
2023/09/28 02:30:22;;;;;;;5.60;5.00;;;;;;;22.87;51.86;98929.52;105304;1262;74443;-39
2023/09/28 02:32:51;;;;;;;5.60;5.00;;;;;;;22.86;51.59;98933.48;105236;1257;65305;-39
2023/09/28 02:35:19;;;;;;;6.70;5.10;;;;;;;22.86;51.67;98931.83;105355;1257;72737;-39
2023/09/28 02:37:48;;;;;;;5.80;4.90;;;;;;;22.85;51.60;98931.34;105314;1262;61243;-39
2023/09/28 02:40:17;;;;;;;6.80;5.60;;;;;;;22.85;51.59;98933.66;105415;1261;61273;-39
2023/09/28 02:42:48;;;;;;;5.30;4.80;;;;;;;22.84;51.52;98931.64;105449;1258;72472;-38
2023/09/28 02:45:16;;;;;;;5.90;5.00;;;;;;;22.84;51.55;98931.48;105309;1261;66147;-39
2023/09/28 02:47:44;;;;;;;5.80;4.70;;;;;;;22.84;51.51;98930.13;105348;1257;72930;-39
2023/09/28 02:50:13;;;;;;;6.20;5.10;;;;;;;22.83;51.34;98936.27;105120;1262;61279;-40
2023/09/28 02:52:41;;;;;;;6.10;4.80;;;;;;;22.83;51.39;98933.98;105096;1258;61464;-38
2023/09/28 02:55:13;;;;;;;6.90;5.00;;;;;;;22.82;51.47;98933.83;105322;1257;75038;-38
2023/09/28 02:57:41;;;;;;;5.30;4.80;;;;;;;22.81;51.51;98939.19;105265;1262;65821;-40
2023/09/28 03:00:28;;;;;;;6.70;5.00;;;;;;;22.81;51.53;98933.08;105279;1257;72650;-40
2023/09/28 03:02:56;;;;;;;5.50;4.80;;;;;;;22.80;51.62;98936.35;105816;1258;61369;-40
2023/09/28 03:05:26;;;;;;;6.00;5.00;;;;;;;22.80;51.38;98936.73;105565;1260;61343;-40
2023/09/28 03:07:53;;;;;;;9.00;4.90;;;;;;;22.79;51.38;98936.57;105209;1257;73171;-38
2023/09/28 03:10:21;;;;;;;6.10;5.20;;;;;;;22.79;51.35;98935.15;105122;1261;66606;-39
2023/09/28 03:12:51;;;;;;;8.00;5.00;;;;;;;22.79;51.42;98933.65;105198;1261;72521;-39
2023/09/28 03:15:20;;;;;;;5.60;5.00;;;;;;;22.78;51.53;98931.83;105253;1262;61237;-39
2023/09/28 03:17:48;;;;;;;6.90;4.90;;;;;;;22.78;51.32;98931.83;105159;1259;61339;-39
2023/09/28 03:20:17;;;;;;;7.40;5.00;;;;;;;22.77;51.23;98931.82;105430;1262;73796;-39
2023/09/28 03:22:46;;;;;;;5.70;4.70;;;;;;;22.77;51.24;98935.17;105360;1258;66037;-39
2023/09/28 03:25:17;;;;;;;6.20;5.10;;;;;;;22.76;51.30;98934.75;105434;1258;72647;-39
2023/09/28 03:27:53;;;;;;;6.50;5.00;;;;;;;22.76;51.39;98933.02;105157;1258;61264;-39
2023/09/28 03:30:23;;;;;;;6.30;5.20;;;;;;;22.75;51.18;98932.83;105329;1257;61263;-38
2023/09/28 03:32:50;;;;;;;6.60;5.10;;;;;;;22.75;51.22;98935.56;105318;1258;73526;-40
2023/09/28 03:35:18;;;;;;;6.20;5.10;;;;;;;22.74;51.15;98934.15;105266;1257;65608;-39
2023/09/28 03:37:46;;;;;;;5.80;4.70;;;;;;;22.73;51.17;98933.73;105243;1257;70458;-39
2023/09/28 03:40:14;;;;;;;6.40;5.00;;;;;;;22.72;51.16;98934.41;105431;1258;61285;-39
2023/09/28 03:42:48;;;;;;;7.70;4.60;;;;;;;22.72;51.35;98935.41;105425;1259;61279;-40
2023/09/28 03:45:20;;;;;;;6.10;5.50;;;;;;;22.71;51.23;98934.77;105448;1258;73642;-39
2023/09/28 03:47:51;;;;;;;5.60;5.10;;;;;;;22.71;51.05;98937.09;105471;1262;65859;-39
2023/09/28 03:50:20;;;;;;;7.00;4.80;;;;;;;22.70;51.14;98939.81;105155;1258;72646;-39
2023/09/28 03:52:47;;;;;;;5.80;4.70;;;;;;;22.70;51.28;98938.63;105386;1258;61267;-39
2023/09/28 03:55:17;;;;;;;5.40;4.60;;;;;;;22.70;51.18;98941.20;105349;1259;61184;-38
2023/09/28 03:57:45;;;;;;;5.70;5.00;;;;;;;22.69;51.00;98941.48;105216;1257;73185;-39
2023/09/28 04:00:14;;;;;;;5.70;4.70;;;;;;;22.69;51.06;98943.36;105163;1264;66008;-38
2023/09/28 04:02:42;;;;;;;5.40;4.90;;;;;;;22.68;51.11;98946.14;105360;1260;72988;-40
2023/09/28 04:05:10;;;;;;;5.60;4.50;;;;;;;22.68;51.13;98946.84;105536;1262;61351;-39
2023/09/28 04:07:39;;;;;;;7.50;5.40;;;;;;;22.67;51.07;98947.83;105404;1257;61286;-38
2023/09/28 04:10:08;;;;;;;8.00;5.30;;;;;;;22.66;51.14;98945.55;105226;1257;73500;-38
2023/09/28 04:12:35;;;;;;;7.00;5.10;;;;;;;22.65;51.15;98946.77;105318;1260;66447;-41
2023/09/28 04:15:04;;;;;;;5.40;4.80;;;;;;;22.65;51.11;98951.14;105348;1258;72618;-40
2023/09/28 04:17:34;;;;;;;5.70;4.90;;;;;;;22.65;51.07;98950.50;105445;1262;61257;-40
2023/09/28 04:20:05;;;;;;;6.40;5.00;;;;;;;22.64;51.15;98956.95;105473;1259;61448;-40
2023/09/28 04:22:33;;;;;;;8.50;5.50;;;;;;;22.64;50.89;98955.61;105482;1259;73285;-39
2023/09/28 04:25:01;;;;;;;6.70;5.00;;;;;;;22.63;50.94;98957.33;105383;1261;66097;-39
2023/09/28 04:27:29;;;;;;;5.50;4.90;;;;;;;22.63;50.90;98954.73;105334;1259;73653;-39
2023/09/28 04:29:56;;;;;;;6.40;5.20;;;;;;;22.62;51.14;98949.92;105214;1262;61256;-40
2023/09/28 04:32:24;;;;;;;5.90;4.90;;;;;;;22.61;50.91;98949.20;105160;1259;61295;-38
2023/09/28 04:34:52;;;;;;;5.70;5.10;;;;;;;22.61;51.04;98947.48;105232;1259;74684;-41
2023/09/28 04:37:19;;;;;;;6.10;5.20;;;;;;;22.60;51.06;98948.67;105234;1262;66286;-41
2023/09/28 04:39:47;;;;;;;7.30;5.10;;;;;;;22.59;50.92;98947.55;105236;1260;72627;-39
2023/09/28 04:42:14;;;;;;;6.50;5.00;;;;;;;22.59;51.06;98947.64;105145;1263;61417;-39
2023/09/28 04:44:43;;;;;;;6.70;4.80;;;;;;;22.59;50.78;98948.58;105304;1257;61308;-40
2023/09/28 04:47:12;;;;;;;7.20;5.30;;;;;;;22.58;50.84;98948.02;105277;1259;74830;-42
2023/09/28 04:49:42;;;;;;;9.70;5.70;;;;;;;22.58;50.96;98947.91;105313;1260;66365;-40
2023/09/28 04:52:13;;;;;;;6.60;5.30;;;;;;;22.58;50.96;98951.35;105278;1258;71017;-40
2023/09/28 04:54:42;;;;;;;5.90;5.40;;;;;;;22.58;50.86;98954.02;105088;1258;61358;-39
2023/09/28 04:57:09;;;;;;;11.90;5.40;;;;;;;22.60;51.35;98957.27;107450;1259;61254;-41
2023/09/28 04:59:40;;;;;;;7.30;5.90;;;;;;;22.61;51.54;98957.29;104940;1263;75409;-41
2023/09/28 05:02:08;;;;;;;9.30;5.50;;;;;;;22.62;51.60;98959.14;105213;1260;66230;-42
2023/09/28 05:04:36;;;;;;;7.00;5.60;;;;;;;22.63;51.58;98958.88;105262;1260;73647;-41
2023/09/28 05:07:04;;;;;;;7.40;5.90;;;;;;;22.63;51.38;98961.00;105202;1262;61244;-42
2023/09/28 05:09:33;;;;;;;7.20;5.80;;;;;;;22.65;51.52;98961.80;105197;1260;61257;-40
2023/09/28 05:12:00;;;;;;;5.70;5.10;;;;;;;22.65;51.49;98962.12;105193;1258;74668;-39
2023/09/28 05:14:31;;;;;;;9.10;5.40;;;;;;;22.65;51.58;98961.41;104891;1262;66758;-48
2023/09/28 05:16:59;;;;;;;8.10;5.30;;;;;;;22.65;51.81;98964.92;105040;1259;74119;-41
2023/09/28 05:19:29;;;;;;;8.90;5.70;;;;;;;22.66;51.91;98963.77;105020;1262;61237;-45
2023/09/28 05:21:58;;;;;;;7.60;5.50;;;;;;;22.66;51.98;98968.23;105049;1259;61360;-47
2023/09/28 05:24:25;;;;;;;14.50;5.70;;;;;;;22.67;51.72;98966.77;105199;1261;74709;-46
2023/09/28 05:26:52;;;;;;;11.60;6.00;;;;;;;22.68;51.98;98969.23;104792;1266;66487;-41
2023/09/28 05:29:20;;;;;;;10.10;5.40;;;;;;;22.68;51.95;98968.99;105328;1260;72459;-40
2023/09/28 05:31:47;;;;;;;9.20;5.50;;;;;;;22.69;52.02;98967.45;105473;1262;61369;-42
2023/09/28 05:34:15;;;;;;;9.20;5.60;;;;;;;22.69;52.10;98966.77;105077;1260;61262;-42
2023/09/28 05:36:42;;;;;;;9.20;5.50;;;;;;;22.70;52.14;98961.95;105006;1258;74640;-42
2023/09/28 05:39:10;;;;;;;12.40;5.70;;;;;;;22.71;52.11;98963.85;105096;1262;65129;-43
2023/09/28 05:41:37;;;;;;;12.60;5.70;;;;;;;22.72;52.28;98966.31;105895;1258;73486;-45
2023/09/28 05:44:07;;;;;;;13.00;6.10;;;;;;;22.72;52.11;98966.23;104963;1262;61244;-45
2023/09/28 05:46:37;;;;;;;8.60;5.80;;;;;;;22.74;52.23;98968.33;107590;1261;60189;-47
2023/09/28 05:49:05;;;;;;;8.90;5.40;;;;;;;22.75;52.36;98968.81;105002;1258;73250;-45
2023/09/28 05:51:33;;;;;;;10.90;5.40;;;;;;;22.76;52.38;98972.44;105366;1257;64829;-45
2023/09/28 05:54:00;;;;;;;11.70;6.00;;;;;;;22.77;52.42;98968.95;105168;1260;72741;-46
2023/09/28 05:56:28;;;;;;;7.20;5.40;;;;;;;22.77;52.25;98971.08;105438;1262;61388;-49
2023/09/28 05:58:56;;;;;;;9.20;5.40;;;;;;;22.78;52.33;98971.16;105298;1259;61452;-47
2023/09/28 06:01:23;;;;;;;10.90;6.00;;;;;;;22.78;52.34;98968.82;106660;1260;74791;-47
2023/09/28 06:03:51;;;;;;;9.60;5.90;;;;;;;22.78;52.38;98971.56;107399;1259;66248;-50
2023/09/28 06:06:19;;;;;;;7.80;6.30;;;;;;;22.78;52.29;98970.63;105326;1260;71802;-45
2023/09/28 06:08:46;;;;;;;11.50;6.90;;;;;;;22.79;52.30;98973.86;105152;1264;61244;-45
2023/09/28 06:11:15;;;;;;;7.90;5.90;;;;;;;22.79;52.46;98976.67;105209;1259;61386;-44
2023/09/28 06:13:43;;;;;;;8.20;5.50;;;;;;;22.79;52.30;98974.64;105213;1263;75046;-45
2023/09/28 06:16:31;;;;;;;7.90;5.70;;;;;;;22.79;52.35;98975.64;105176;1262;66100;-44
2023/09/28 06:18:59;;;;;;;8.30;5.60;;;;;;;22.79;52.41;98974.16;105198;1259;72627;-45
2023/09/28 06:21:26;;;;;;;10.20;6.00;;;;;;;22.79;52.43;98972.91;105275;1260;62650;-45
2023/09/28 06:23:54;;;;;;;7.10;6.20;;;;;;;22.79;52.45;98973.38;105328;1258;61286;-46
2023/09/28 06:26:22;;;;;;;6.90;5.60;;;;;;;22.79;52.32;98972.23;105153;1258;74244;-47
2023/09/28 06:29:07;;;;;;;;;;;;;;;22.79;52.35;98970.25;105230;1260;67080;-47
2023/09/28 06:31:35;;;;;;;6.70;5.20;;;;;;;22.79;52.62;98971.34;105153;1262;72655;-46
2023/09/28 06:34:03;;;;;;;16.10;6.10;;;;;;;22.78;52.47;98973.27;105106;1262;61375;-45
2023/09/28 06:36:32;;;;;;;6.70;6.00;;;;;;;22.78;52.52;98968.36;105082;1260;63542;-45
2023/09/28 06:39:04;;;;;;;8.80;5.90;;;;;;;22.78;52.47;98969.12;105205;1257;73278;-45
2023/09/28 06:41:32;;;;;;;7.60;6.20;;;;;;;22.78;52.55;98969.54;105362;1265;67248;-45
2023/09/28 06:44:00;;;;;;;7.20;6.40;;;;;;;22.79;52.65;98971.89;105067;1260;72576;-46
2023/09/28 06:46:28;;;;;;;8.60;6.20;;;;;;;22.79;52.68;98971.66;105158;1265;61328;-48
2023/09/28 06:48:59;;;;;;;9.10;6.90;;;;;;;22.78;52.70;98971.17;105596;1260;61322;-45
2023/09/28 06:51:32;;;;;;;7.50;6.10;;;;;;;22.79;52.66;98972.52;106018;1260;75031;-45
2023/09/28 06:54:00;;;;;;;8.70;6.10;;;;;;;22.79;52.78;98971.13;108130;1261;65859;-45
2023/09/28 06:56:28;;;;;;;10.60;7.00;;;;;;;22.80;52.83;98969.27;106600;1258;72669;-45
2023/09/28 06:58:56;;;;;;;9.60;6.60;;;;;;;22.80;52.69;98971.54;105261;1262;61238;-44
2023/09/28 07:01:24;;;;;;;8.10;6.40;;;;;;;22.81;52.77;98971.27;106159;1260;61198;-45
2023/09/28 07:03:55;;;;;;;7.90;5.90;;;;;;;22.82;52.95;98971.50;105171;1257;74785;-46
2023/09/28 07:06:24;;;;;;;9.10;6.20;;;;;;;22.82;52.96;98968.95;105485;1262;67075;-46
2023/09/28 07:08:54;;;;;;;7.20;6.10;;;;;;;22.83;52.74;98964.61;105629;1259;71810;-47
2023/09/28 07:11:24;;;;;;;9.40;6.10;;;;;;;22.84;52.72;98966.88;105457;1261;61759;-46
2023/09/28 07:13:54;;;;;;;8.60;6.20;;;;;;;22.84;52.76;98968.21;105345;1262;62129;-45
2023/09/28 07:16:23;;;;;;;8.00;6.00;;;;;;;22.85;52.92;98970.49;107461;1258;75949;-45
2023/09/28 07:18:50;;;;;;;8.90;6.00;;;;;;;22.86;52.85;98971.15;105308;1261;67058;-47
2023/09/28 07:21:19;;;;;;;7.80;6.00;;;;;;;22.85;52.68;98972.46;105364;1261;73645;-47
2023/09/28 07:23:48;;;;;;;9.00;6.20;;;;;;;22.86;52.76;98969.45;105422;1263;61218;-47
2023/09/28 07:26:25;;;;;;;11.60;6.50;;;;;;;22.87;52.87;98970.71;105100;1260;61402;-45
2023/09/28 07:28:54;;;;;;;10.50;6.20;;;;;;;22.87;52.95;98969.23;105259;1262;75464;-43
2023/09/28 07:31:25;;;;;;;8.30;6.40;;;;;;;22.88;53.18;98969.58;105188;1262;66170;-44
2023/09/28 07:33:55;;;;;;;9.90;6.20;;;;;;;22.88;53.10;98967.00;105240;1260;74498;-41
2023/09/28 07:36:24;;;;;;;10.10;6.50;;;;;;;22.88;53.10;98963.42;105065;1265;61238;-41
2023/09/28 07:38:51;;;;;;;7.80;6.10;;;;;;;22.89;53.09;98961.17;106671;1256;61125;-41
2023/09/28 07:41:19;;;;;;;10.50;6.10;;;;;;;22.90;53.16;98963.08;105209;1261;74491;-42
2023/09/28 07:43:47;;;;;;;13.50;6.80;;;;;;;22.90;53.23;98962.36;105267;1257;67613;-45
2023/09/28 07:46:14;;;;;;;8.80;6.60;;;;;;;22.91;53.11;98958.73;105148;1260;73640;-44
2023/09/28 07:54:26;;;;;;;12.30;5.90;;;;;;;22.92;53.78;98957.38;105090;1259;61710;-49
2023/09/28 07:56:59;;;;;;;11.20;6.80;;;;;;;22.92;54.11;98961.20;105736;1262;76796;-48
2023/09/28 07:59:26;;;;;;;13.00;7.20;;;;;;;22.94;54.01;98959.83;104619;1267;65811;-48
2023/09/28 08:01:54;;;;;;;12.50;8.10;;;;;;;22.95;54.27;98960.32;104969;1273;72567;-48
2023/09/28 08:04:22;;;;;;;12.60;8.80;;;;;;;22.96;54.24;98962.39;104866;1264;61270;-46
2023/09/28 08:06:49;;;;;;;15.40;9.60;;;;;;;22.97;54.30;98957.88;104695;1260;61279;-48
2023/09/28 08:09:19;;;;;;;16.70;9.30;;;;;;;22.97;54.51;98957.36;108728;1259;74516;-48
2023/09/28 08:11:48;;;;;;;14.10;9.30;;;;;;;22.98;54.36;98957.31;107779;1262;63874;-53
2023/09/28 08:14:21;;;;;;;16.30;9.50;;;;;;;23.00;54.53;98955.16;104875;1261;73680;-49
2023/09/28 08:16:49;;;;;;;15.00;8.90;;;;;;;23.01;54.41;98952.15;105168;1263;61542;-51
2023/09/28 08:19:16;;;;;;;15.80;9.20;;;;;;;23.02;54.46;98955.00;105112;1261;61866;-52
2023/09/28 08:21:45;;;;;;;15.80;8.80;;;;;;;23.02;54.48;98952.04;105638;1259;75642;-50
2023/09/28 08:24:13;;;;;;;30.90;9.40;;;;;;;23.04;54.86;98952.95;104780;1260;64681;-51
2023/09/28 08:26:40;;;;;;;25.70;9.40;;;;;;;23.05;55.28;98949.31;105084;1260;72840;-51
2023/09/28 08:29:08;;;;;;;16.50;9.20;;;;;;;23.06;56.05;98946.74;108870;1259;58962;-51
2023/09/28 08:31:36;;;;;;;20.20;9.00;;;;;;;23.07;56.19;98947.41;108225;1259;61395;-51
2023/09/28 08:34:03;;;;;;;18.20;9.00;;;;;;;23.08;56.90;98944.39;105031;1263;74761;-51
2023/09/28 08:36:30;;;;;;;16.30;8.20;;;;;;;23.09;57.22;98945.83;105077;1262;66142;-48
2023/09/28 08:38:58;;;;;;;15.20;8.20;;;;;;;23.10;57.29;98944.51;105213;1261;72616;-52
2023/09/28 08:41:44;;;;;;;17.30;8.50;;;;;;;23.12;56.88;98948.16;105338;1262;61523;-50
2023/09/28 08:44:12;;;;;;;12.70;7.80;;;;;;;23.13;56.55;98945.60;104947;1263;61168;-51
2023/09/28 08:46:40;;;;;;;13.00;7.20;;;;;;;23.13;56.17;98948.89;105001;1264;75570;-47
2023/09/28 08:49:15;;;;;;;10.10;7.30;;;;;;;23.14;55.87;98943.46;104943;1263;66370;-50
2023/09/28 08:51:44;;;;;;;12.30;7.60;;;;;;;23.15;55.81;98942.70;105436;1259;73416;-51
2023/09/28 08:54:12;;;;;;;16.50;7.70;;;;;;;23.15;55.45;98940.75;107246;1259;61390;-52
2023/09/28 08:56:39;;;;;;;15.00;6.90;;;;;;;23.17;55.32;98940.39;105049;1260;61395;-52
2023/09/28 08:59:10;;;;;;;14.70;7.60;;;;;;;23.18;55.18;98937.38;105090;1261;75751;-51
2023/09/28 09:01:38;;;;;;;10.10;7.10;;;;;;;23.19;55.16;98939.12;104828;1264;203385;-50
2023/09/28 09:04:07;;;;;;;8.90;6.60;;;;;;;23.20;54.97;98935.41;104944;1261;73679;-49
2023/09/28 09:06:35;;;;;;;10.40;6.90;;;;;;;23.21;54.77;98935.59;104966;1264;61371;-50
2023/09/28 09:09:11;;;;;;;9.90;6.60;;;;;;;23.22;55.03;98938.59;104899;1259;61798;-50
2023/09/28 09:11:38;;;;;;;11.30;7.50;;;;;;;23.23;54.75;98938.45;106522;1259;73989;-49
2023/09/28 09:14:05;;;;;;;11.70;6.80;;;;;;;23.24;54.97;98938.23;105186;1262;67243;-51
2023/09/28 09:16:33;;;;;;;7.60;6.20;;;;;;;23.25;55.04;98934.30;105073;1260;73983;-50
2023/09/28 09:19:01;;;;;;;14.10;6.40;;;;;;;23.26;54.99;98930.73;105407;1261;61383;-52
2023/09/28 09:21:38;;;;;;;9.80;5.90;;;;;;;23.28;54.90;98930.23;105143;1261;61461;-53
2023/09/28 09:24:10;;;;;;;9.40;6.30;;;;;;;23.30;55.20;98927.15;104722;1264;74527;-50
2023/09/28 09:26:41;;;;;;;10.30;6.00;;;;;;;23.32;55.40;98924.55;104899;1259;66056;-50
2023/09/28 09:29:11;;;;;;;8.70;6.10;;;;;;;23.34;55.26;98919.30;105455;1259;74247;-50
2023/09/28 09:31:39;;;;;;;10.30;6.30;;;;;;;23.36;55.29;98917.52;105387;1264;61295;-52
2023/09/28 09:34:12;;;;;;;9.40;6.20;;;;;;;23.38;55.45;98917.57;104924;1259;61395;-51
2023/09/28 09:36:41;;;;;;;10.50;5.60;;;;;;;23.41;55.30;98914.28;105218;1262;75468;-50
2023/09/28 09:39:08;;;;;;;8.00;5.70;;;;;;;23.42;55.34;98914.85;105065;1262;66290;-50
2023/09/28 09:41:44;;;;;;;7.50;5.90;;;;;;;23.44;55.45;98912.63;104796;1260;73729;-49
2023/09/28 09:44:16;;;;;;;;;;;;;;;23.46;55.27;98911.75;105006;1264;61365;-49
2023/09/28 09:46:50;;;;;;;8.10;5.50;;;;;;;23.47;55.19;98908.02;105217;1260;61260;-49
2023/09/28 09:49:18;;;;;;;8.80;5.70;;;;;;;23.48;54.84;98911.17;105214;1259;76048;-43
2023/09/28 09:51:47;;;;;;;7.10;5.20;;;;;;;23.51;54.99;98910.61;105336;1259;66320;-49
2023/09/28 09:54:16;;;;;;;8.30;5.50;;;;;;;23.53;55.12;98909.75;105002;1260;73468;-49
2023/09/28 09:56:48;;;;;;;8.20;5.00;;;;;;;23.56;55.12;98904.96;108012;1259;61401;-50
2023/09/28 09:59:17;;;;;;;7.10;5.10;;;;;;;23.59;54.84;98906.30;105165;1260;61314;-51
2023/09/28 10:01:53;;;;;;;8.10;5.30;;;;;;;23.61;54.67;98904.85;105229;1258;74561;-51
2023/09/28 10:04:23;;;;;;;7.20;5.00;;;;;;;23.63;54.40;98903.83;105090;1258;65942;-52
2023/09/28 10:06:52;;;;;;;7.50;4.50;;;;;;;23.64;54.12;98902.67;105051;1262;73752;-51
2023/09/28 10:09:20;;;;;;;8.30;5.30;;;;;;;23.66;53.88;98902.17;105220;1258;61459;-51
2023/09/28 10:11:50;;;;;;;6.30;4.40;;;;;;;23.68;53.63;98901.02;104923;1260;60408;-50
2023/09/28 10:14:21;;;;;;;8.40;4.60;;;;;;;23.69;53.34;98900.29;105268;1263;74109;-49
2023/09/28 10:16:50;;;;;;;7.00;4.60;;;;;;;23.70;53.02;98897.27;105176;1259;66231;-54
2023/09/28 10:19:19;;;;;;;8.30;4.70;;;;;;;23.72;52.76;98890.66;105072;1262;73351;-53
2023/09/28 10:21:47;;;;;;;6.40;4.60;;;;;;;23.73;52.69;98893.03;105196;1262;62042;-51
2023/09/28 10:24:15;;;;;;;7.40;4.50;;;;;;;23.74;52.56;98888.30;106222;1262;61236;-49
2023/09/28 10:26:47;;;;;;;7.40;4.80;;;;;;;23.75;52.68;98888.86;108963;1259;74264;-48
2023/09/28 10:29:23;;;;;;;9.50;5.10;;;;;;;23.75;52.76;98886.22;106617;1260;67418;-48
2023/09/28 10:31:53;;;;;;;9.90;4.80;;;;;;;23.76;52.93;98888.10;107369;1259;72805;-48
2023/09/28 10:40:03;;;;;;;7.60;4.50;;;;;;;23.78;52.67;98882.45;104980;1260;62272;-47
2023/09/28 10:42:32;;;;;;;13.80;4.70;;;;;;;23.78;52.78;98885.11;104775;1261;75761;-48
2023/09/28 10:45:01;;;;;;;8.00;5.00;;;;;;;23.78;53.10;98884.72;104906;1266;66102;-49
2023/09/28 10:47:31;;;;;;;7.20;4.80;;;;;;;23.78;52.86;98880.11;104885;1260;73641;-49
2023/09/28 10:49:59;;;;;;;7.10;4.70;;;;;;;23.79;52.84;98885.91;105142;1259;61466;-45
2023/09/28 10:52:27;;;;;;;5.40;4.30;;;;;;;23.78;52.44;98879.10;105074;1262;61253;-38
2023/09/28 10:54:55;;;;;;;10.30;4.30;;;;;;;23.80;52.66;98878.43;105265;1259;74399;-38
2023/09/28 10:57:30;;;;;;;6.20;4.30;;;;;;;23.82;52.33;98877.61;104946;1262;66091;-38
2023/09/28 11:00:00;;;;;;;5.10;3.70;;;;;;;23.84;52.46;98878.20;105150;1258;72555;-39
2023/09/28 11:02:28;;;;;;;8.00;4.40;;;;;;;23.86;52.64;98876.61;104925;1262;61453;-39
2023/09/28 11:04:59;;;;;;;5.70;4.20;;;;;;;23.88;52.35;98871.82;105666;1259;61807;-37
2023/09/28 11:07:28;;;;;;;7.20;3.50;;;;;;;23.91;52.20;98873.13;104845;1261;73509;-40
2023/09/28 11:09:57;;;;;;;5.60;4.20;;;;;;;23.94;52.18;98867.81;105193;1259;66006;-38
2023/09/28 11:12:31;;;;;;;7.40;4.00;;;;;;;23.97;51.87;98865.77;106701;1262;73636;-37
2023/09/28 11:14:58;;;;;;;6.70;3.80;;;;;;;24.00;51.71;98863.02;104836;1260;61408;-43
2023/09/28 11:17:26;;;;;;;4.70;3.80;;;;;;;24.03;51.55;98860.66;105476;1263;61248;-39
2023/09/28 11:19:56;;;;;;;6.70;3.90;;;;;;;24.05;51.44;98858.77;108898;1258;74035;-41
2023/09/28 11:22:23;;;;;;;5.50;4.00;;;;;;;24.07;51.30;98857.57;108620;1259;67343;-39
2023/09/28 11:24:50;;;;;;;8.20;4.20;;;;;;;24.09;51.29;98853.71;105521;1259;72364;-39
2023/09/28 11:27:18;;;;;;;5.50;4.10;;;;;;;24.12;51.11;98852.14;105250;1262;61395;-41
2023/09/28 11:29:45;;;;;;;7.00;4.10;;;;;;;24.15;51.13;98853.44;106650;1259;61158;-38
2023/09/28 11:32:13;;;;;;;5.70;4.30;;;;;;;24.16;50.98;98852.23;105303;1259;74640;-37
2023/09/28 11:34:40;;;;;;;8.10;4.10;;;;;;;24.18;50.93;98849.21;105257;1260;66975;-42
2023/09/28 11:37:11;;;;;;;9.40;3.80;;;;;;;24.18;50.90;98849.46;105236;1260;73821;-40
2023/09/28 11:39:39;;;;;;;6.80;4.50;;;;;;;24.19;50.86;98845.09;105018;1262;61275;-41
2023/09/28 11:42:07;;;;;;;6.70;3.80;;;;;;;24.20;51.04;98845.13;104972;1264;61200;-40
2023/09/28 11:44:36;;;;;;;6.80;4.20;;;;;;;24.20;50.76;98840.74;105175;1259;74811;-41